BTK6235 WAAA-WAEE
Flight info
| Callsign | BTK6235 |
|---|---|
| Flight time | 1h 31m |
| Altitude | 37000 |
| Route | KENDO A450 TALIA DCT IRSET |
| Aircraft | A320/M-SDE3FGHIRWY/LB1 |
Departure
| Time | 2026-04-23 16:13 |
|---|---|
| Airport | Sultan Hasanuddin International Airport (WAAA) |
Arrival
| Time | 2026-04-23 17:45 |
|---|---|
| Airport | Sultan Babullah Airport (WAEE) |
| Time | Latitude | Longitude | Altitude | Speed | Heading |
|---|---|---|---|---|---|
| 2026-04-23 15:54 | -5.07709 | 119.54766 | 41 ft | 0 kts | 299° |
| 2026-04-23 16:01 | -5.07719 | 119.54785 | 40 ft | 4 kts | 294° |
| 2026-04-23 16:01 | -5.07728 | 119.54810 | 40 ft | 4 kts | 279° |
| 2026-04-23 16:01 | -5.07728 | 119.54835 | 41 ft | 4 kts | 234° |
| 2026-04-23 16:02 | -5.07719 | 119.54844 | 41 ft | 1 kts | 210° |
| 2026-04-23 16:02 | -5.07718 | 119.54845 | 41 ft | 0 kts | 210° |
| 2026-04-23 16:07 | -5.07761 | 119.54820 | 41 ft | 10 kts | 210° |
| 2026-04-23 16:07 | -5.07767 | 119.54816 | 41 ft | 2 kts | 210° |
| 2026-04-23 16:07 | -5.07815 | 119.54790 | 41 ft | 0 kts | 207° |
| 2026-04-23 16:07 | -5.07815 | 119.54789 | 41 ft | 1 kts | 207° |
| 2026-04-23 16:08 | -5.07873 | 119.54766 | 41 ft | 0 kts | 224° |
| 2026-04-23 16:08 | -5.07877 | 119.54762 | 41 ft | 6 kts | 222° |
| 2026-04-23 16:08 | -5.07943 | 119.54718 | 41 ft | 9 kts | 210° |
| 2026-04-23 16:08 | -5.07993 | 119.54725 | 41 ft | 7 kts | 143° |
| 2026-04-23 16:09 | -5.08024 | 119.54770 | 41 ft | 11 kts | 120° |
| 2026-04-23 16:09 | -5.08096 | 119.54844 | 41 ft | 17 kts | 177° |
| 2026-04-23 16:09 | -5.08210 | 119.54782 | 41 ft | 21 kts | 210° |
| 2026-04-23 16:09 | -5.08353 | 119.54702 | 41 ft | 25 kts | 209° |
| 2026-04-23 16:10 | -5.08549 | 119.54590 | 41 ft | 50 kts | 210° |
| 2026-04-23 16:10 | -5.08748 | 119.54478 | 41 ft | 23 kts | 209° |
| 2026-04-23 16:10 | -5.08914 | 119.54383 | 41 ft | 33 kts | 210° |
| 2026-04-23 16:10 | -5.09047 | 119.54307 | 41 ft | 15 kts | 209° |
| 2026-04-23 16:11 | -5.09141 | 119.54280 | 41 ft | 8 kts | 159° |
| 2026-04-23 16:11 | -5.09171 | 119.54306 | 41 ft | 0 kts | 125° |
| 2026-04-23 16:11 | -5.09176 | 119.54312 | 41 ft | 11 kts | 124° |
| 2026-04-23 16:12 | -5.09185 | 119.54334 | 41 ft | 3 kts | 118° |
| 2026-04-23 16:12 | -5.09194 | 119.54351 | 42 ft | 7 kts | 118° |
| 2026-04-23 16:12 | -5.09198 | 119.54418 | 40 ft | 8 kts | 30° |
| 2026-04-23 16:12 | -5.09103 | 119.54472 | 43 ft | 41 kts | 30° |
| 2026-04-23 16:13 | -5.08645 | 119.54742 | 42 ft | 109 kts | 31° |
| 2026-04-23 16:13 | -5.06755 | 119.55825 | 242 ft | 186 kts | 30° |
| 2026-04-23 16:13 | -5.05592 | 119.56402 | 756 ft | 197 kts | 13° |
| 2026-04-23 16:14 | -5.04116 | 119.56486 | 829 ft | 228 kts | 356° |
| 2026-04-23 16:14 | -5.02451 | 119.56330 | 1213 ft | 251 kts | 354° |
| 2026-04-23 16:14 | -5.00671 | 119.56152 | 1889 ft | 260 kts | 355° |
| 2026-04-23 16:14 | -4.98856 | 119.56019 | 2756 ft | 264 kts | 357° |
| 2026-04-23 16:15 | -4.97004 | 119.55941 | 3603 ft | 268 kts | 359° |
| 2026-04-23 16:15 | -4.95118 | 119.55908 | 4425 ft | 272 kts | 1° |
| 2026-04-23 16:15 | -4.93231 | 119.56097 | 5204 ft | 275 kts | 16° |
| 2026-04-23 16:15 | -4.91487 | 119.56824 | 6005 ft | 277 kts | 33° |
| 2026-04-23 16:16 | -4.89997 | 119.58081 | 6784 ft | 278 kts | 51° |
| 2026-04-23 16:16 | -4.88981 | 119.59732 | 7528 ft | 280 kts | 69° |
| 2026-04-23 16:16 | -4.88559 | 119.61634 | 8313 ft | 283 kts | 86° |
| 2026-04-23 16:16 | -4.88396 | 119.63610 | 9171 ft | 286 kts | 84° |
| 2026-04-23 16:17 | -4.88201 | 119.65575 | 9978 ft | 288 kts | 85° |
| 2026-04-23 16:17 | -4.87983 | 119.67659 | 10349 ft | 308 kts | 84° |
| 2026-04-23 16:17 | -4.87747 | 119.69875 | 10549 ft | 330 kts | 84° |
| 2026-04-23 16:17 | -4.87500 | 119.72205 | 11005 ft | 340 kts | 84° |
| 2026-04-23 16:18 | -4.87257 | 119.74546 | 11621 ft | 344 kts | 84° |
| 2026-04-23 16:18 | -4.87011 | 119.76944 | 12259 ft | 348 kts | 84° |
| 2026-04-23 16:18 | -4.86767 | 119.79383 | 12909 ft | 351 kts | 84° |
| 2026-04-23 16:18 | -4.86525 | 119.81824 | 13526 ft | 355 kts | 84° |
| 2026-04-23 16:19 | -4.86277 | 119.84297 | 14091 ft | 358 kts | 84° |
| 2026-04-23 16:19 | -4.86026 | 119.86793 | 14635 ft | 361 kts | 84° |
| 2026-04-23 16:19 | -4.85771 | 119.89316 | 15050 ft | 369 kts | 84° |
| 2026-04-23 16:19 | -4.85504 | 119.91925 | 15319 ft | 380 kts | 84° |
| 2026-04-23 16:20 | -4.85231 | 119.94593 | 15579 ft | 391 kts | 84° |
| 2026-04-23 16:20 | -4.84952 | 119.97354 | 15714 ft | 404 kts | 84° |
| 2026-04-23 16:20 | -4.84666 | 120.00205 | 15900 ft | 415 kts | 84° |
| 2026-04-23 16:20 | -4.84377 | 120.03091 | 16265 ft | 419 kts | 84° |
| 2026-04-23 16:21 | -4.84084 | 120.06015 | 16685 ft | 422 kts | 84° |
| 2026-04-23 16:21 | -4.83794 | 120.08934 | 17454 ft | 412 kts | 84° |
| 2026-04-23 16:21 | -4.83515 | 120.11726 | 18624 ft | 395 kts | 84° |
| 2026-04-23 16:21 | -4.83242 | 120.14458 | 19315 ft | 391 kts | 84° |
| 2026-04-23 16:22 | -4.82970 | 120.17159 | 19810 ft | 391 kts | 84° |
| 2026-04-23 16:22 | -4.82695 | 120.19884 | 20256 ft | 393 kts | 84° |
| 2026-04-23 16:22 | -4.82417 | 120.22625 | 20679 ft | 396 kts | 84° |
| 2026-04-23 16:22 | -4.82141 | 120.25372 | 21110 ft | 398 kts | 84° |
| 2026-04-23 16:23 | -4.81863 | 120.28146 | 21530 ft | 401 kts | 84° |
| 2026-04-23 16:23 | -4.81581 | 120.30930 | 21954 ft | 403 kts | 84° |
| 2026-04-23 16:23 | -4.81296 | 120.33734 | 22362 ft | 406 kts | 84° |
| 2026-04-23 16:23 | -4.80999 | 120.36553 | 22761 ft | 408 kts | 82° |
| 2026-04-23 16:24 | -4.80366 | 120.39294 | 23132 ft | 410 kts | 71° |
| 2026-04-23 16:24 | -4.79202 | 120.41948 | 23496 ft | 413 kts | 60° |
| 2026-04-23 16:24 | -4.77620 | 120.44325 | 23799 ft | 416 kts | 55° |
| 2026-04-23 16:24 | -4.75934 | 120.46682 | 24120 ft | 418 kts | 55° |
| 2026-04-23 16:25 | -4.74239 | 120.49064 | 24450 ft | 420 kts | 55° |
| 2026-04-23 16:25 | -4.72542 | 120.51453 | 24761 ft | 422 kts | 55° |
| 2026-04-23 16:25 | -4.70842 | 120.53853 | 25070 ft | 424 kts | 55° |
| 2026-04-23 16:25 | -4.69132 | 120.56272 | 25378 ft | 426 kts | 55° |
| 2026-04-23 16:26 | -4.67412 | 120.58698 | 25679 ft | 428 kts | 55° |
| 2026-04-23 16:26 | -4.65684 | 120.61131 | 25986 ft | 429 kts | 55° |
| 2026-04-23 16:26 | -4.63946 | 120.63577 | 26278 ft | 431 kts | 55° |
| 2026-04-23 16:26 | -4.62202 | 120.66032 | 26574 ft | 433 kts | 55° |
| 2026-04-23 16:27 | -4.60455 | 120.68493 | 26862 ft | 435 kts | 55° |
| 2026-04-23 16:27 | -4.58700 | 120.70969 | 27142 ft | 437 kts | 55° |
| 2026-04-23 16:27 | -4.56935 | 120.73460 | 27420 ft | 439 kts | 55° |
| 2026-04-23 16:27 | -4.55163 | 120.75961 | 27710 ft | 441 kts | 55° |
| 2026-04-23 16:28 | -4.53377 | 120.78475 | 27993 ft | 443 kts | 55° |
| 2026-04-23 16:28 | -4.51592 | 120.80988 | 28268 ft | 445 kts | 55° |
| 2026-04-23 16:28 | -4.49789 | 120.83522 | 28534 ft | 446 kts | 55° |
| 2026-04-23 16:28 | -4.47986 | 120.86061 | 28800 ft | 448 kts | 55° |
| 2026-04-23 16:29 | -4.46176 | 120.88609 | 29058 ft | 450 kts | 55° |
| 2026-04-23 16:29 | -4.44351 | 120.91176 | 29304 ft | 452 kts | 55° |
| 2026-04-23 16:29 | -4.42528 | 120.93740 | 29541 ft | 453 kts | 55° |
| 2026-04-23 16:29 | -4.40693 | 120.96329 | 29797 ft | 455 kts | 55° |
| 2026-04-23 16:30 | -4.38864 | 120.98914 | 30024 ft | 457 kts | 55° |
| 2026-04-23 16:30 | -4.37023 | 121.01518 | 30218 ft | 458 kts | 55° |
| 2026-04-23 16:30 | -4.35178 | 121.04132 | 30425 ft | 460 kts | 55° |
| 2026-04-23 16:30 | -4.33350 | 121.06723 | 30616 ft | 461 kts | 55° |
| 2026-04-23 16:31 | -4.31494 | 121.09345 | 30816 ft | 463 kts | 55° |
| 2026-04-23 16:31 | -4.29631 | 121.11972 | 31104 ft | 462 kts | 55° |
| 2026-04-23 16:31 | -4.27770 | 121.14591 | 31401 ft | 460 kts | 55° |
| 2026-04-23 16:31 | -4.25917 | 121.17200 | 31693 ft | 460 kts | 55° |
| 2026-04-23 16:32 | -4.24066 | 121.19809 | 31984 ft | 459 kts | 55° |
| 2026-04-23 16:32 | -4.22218 | 121.22414 | 32273 ft | 458 kts | 55° |
| 2026-04-23 16:32 | -4.20343 | 121.24997 | 32577 ft | 458 kts | 54° |
| 2026-04-23 16:32 | -4.18430 | 121.27544 | 32877 ft | 457 kts | 53° |
| 2026-04-23 16:33 | -4.16501 | 121.30058 | 33181 ft | 456 kts | 53° |
| 2026-04-23 16:33 | -4.14559 | 121.32568 | 33491 ft | 455 kts | 53° |
| 2026-04-23 16:33 | -4.12619 | 121.35080 | 33792 ft | 454 kts | 53° |
| 2026-04-23 16:33 | -4.10702 | 121.37579 | 34081 ft | 454 kts | 53° |
| 2026-04-23 16:34 | -4.08786 | 121.40097 | 34345 ft | 453 kts | 54° |
| 2026-04-23 16:34 | -4.06880 | 121.42614 | 34625 ft | 452 kts | 54° |
| 2026-04-23 16:34 | -4.04986 | 121.45123 | 34878 ft | 451 kts | 54° |
| 2026-04-23 16:34 | -4.03092 | 121.47631 | 35118 ft | 451 kts | 54° |
| 2026-04-23 16:35 | -4.01197 | 121.50137 | 35335 ft | 451 kts | 54° |
| 2026-04-23 16:35 | -3.99301 | 121.52635 | 35573 ft | 450 kts | 54° |
| 2026-04-23 16:35 | -3.97401 | 121.55131 | 35811 ft | 450 kts | 54° |
| 2026-04-23 16:35 | -3.95502 | 121.57625 | 36039 ft | 450 kts | 54° |
| 2026-04-23 16:36 | -3.93610 | 121.60114 | 36255 ft | 449 kts | 54° |
| 2026-04-23 16:36 | -3.91716 | 121.62610 | 36474 ft | 449 kts | 54° |
| 2026-04-23 16:36 | -3.89830 | 121.65097 | 36686 ft | 449 kts | 54° |
| 2026-04-23 16:36 | -3.87942 | 121.67586 | 36876 ft | 449 kts | 54° |
| 2026-04-23 16:37 | -3.84171 | 121.72565 | 36944 ft | 448 kts | 54° |
| 2026-04-23 16:37 | -3.80410 | 121.77527 | 36947 ft | 447 kts | 54° |
| 2026-04-23 16:38 | -3.76639 | 121.82486 | 36947 ft | 447 kts | 54° |
| 2026-04-23 16:38 | -3.72868 | 121.87445 | 36945 ft | 447 kts | 54° |
| 2026-04-23 16:39 | -3.69121 | 121.92372 | 36944 ft | 447 kts | 53° |
| 2026-04-23 16:39 | -3.65356 | 121.97322 | 36941 ft | 447 kts | 53° |
| 2026-04-23 16:40 | -3.61585 | 122.02288 | 36938 ft | 447 kts | 53° |
| 2026-04-23 16:40 | -3.57264 | 122.07973 | 36936 ft | 447 kts | 53° |
| 2026-04-23 16:41 | -3.47852 | 122.20348 | 36924 ft | 447 kts | 54° |
| 2026-04-23 16:41 | -3.42317 | 122.27623 | 36921 ft | 447 kts | 53° |
| 2026-04-23 16:42 | -3.38553 | 122.32579 | 36919 ft | 447 kts | 53° |
| 2026-04-23 16:42 | -3.34788 | 122.37536 | 36913 ft | 447 kts | 53° |
| 2026-04-23 16:43 | -3.31017 | 122.42491 | 36908 ft | 448 kts | 53° |
| 2026-04-23 16:43 | -3.27357 | 122.47518 | 36905 ft | 447 kts | 60° |
| 2026-04-23 16:44 | -3.24131 | 122.52844 | 36905 ft | 447 kts | 59° |
| 2026-04-23 16:44 | -3.20900 | 122.58155 | 36900 ft | 447 kts | 59° |
| 2026-04-23 16:45 | -3.17664 | 122.63456 | 36899 ft | 447 kts | 59° |
| 2026-04-23 16:45 | -3.14419 | 122.68784 | 36901 ft | 447 kts | 59° |
| 2026-04-23 16:46 | -3.11186 | 122.74100 | 36900 ft | 447 kts | 59° |
| 2026-04-23 16:46 | -3.07947 | 122.79420 | 36896 ft | 447 kts | 59° |
| 2026-04-23 16:47 | -3.04713 | 122.84735 | 36894 ft | 447 kts | 59° |
| 2026-04-23 16:47 | -3.01473 | 122.90055 | 36895 ft | 448 kts | 59° |
| 2026-04-23 16:48 | -2.98252 | 122.95333 | 36895 ft | 448 kts | 59° |
| 2026-04-23 16:48 | -2.95018 | 123.00655 | 36897 ft | 448 kts | 60° |
| 2026-04-23 16:49 | -2.91780 | 123.05982 | 36898 ft | 448 kts | 60° |
| 2026-04-23 16:49 | -2.88540 | 123.11308 | 36895 ft | 448 kts | 59° |
| 2026-04-23 16:50 | -2.85288 | 123.16628 | 36897 ft | 448 kts | 59° |
| 2026-04-23 16:50 | -2.82581 | 123.21058 | 36895 ft | 449 kts | 60° |
| 2026-04-23 16:51 | -2.79339 | 123.26387 | 36898 ft | 449 kts | 60° |
| 2026-04-23 16:51 | -2.76088 | 123.31725 | 36898 ft | 449 kts | 59° |
| 2026-04-23 16:52 | -2.72833 | 123.37053 | 36895 ft | 449 kts | 59° |
| 2026-04-23 16:52 | -2.69579 | 123.42391 | 36901 ft | 449 kts | 60° |
| 2026-04-23 16:53 | -2.66326 | 123.47728 | 36898 ft | 450 kts | 59° |
| 2026-04-23 16:53 | -2.63063 | 123.53072 | 36898 ft | 450 kts | 59° |
| 2026-04-23 16:54 | -2.59803 | 123.58413 | 36900 ft | 450 kts | 59° |
| 2026-04-23 16:54 | -2.56564 | 123.63730 | 36900 ft | 450 kts | 60° |
| 2026-04-23 16:55 | -2.53308 | 123.69079 | 36909 ft | 450 kts | 60° |
| 2026-04-23 16:55 | -2.50094 | 123.74341 | 36898 ft | 438 kts | 60° |
| 2026-04-23 16:56 | -2.46923 | 123.79534 | 36894 ft | 436 kts | 60° |
| 2026-04-23 16:56 | -2.43762 | 123.84724 | 36895 ft | 437 kts | 60° |
| 2026-04-23 16:57 | -2.40602 | 123.89912 | 36896 ft | 437 kts | 60° |
| 2026-04-23 16:57 | -2.37438 | 123.95087 | 36897 ft | 437 kts | 60° |
| 2026-04-23 16:58 | -2.34246 | 124.00288 | 36900 ft | 437 kts | 60° |
| 2026-04-23 16:58 | -2.31075 | 124.05479 | 36898 ft | 438 kts | 60° |
| 2026-04-23 16:59 | -2.27909 | 124.10682 | 36901 ft | 438 kts | 60° |
| 2026-04-23 16:59 | -2.24741 | 124.15881 | 36902 ft | 438 kts | 60° |
| 2026-04-23 17:00 | -2.21570 | 124.21074 | 36904 ft | 438 kts | 60° |
| 2026-04-23 17:00 | -2.18399 | 124.26265 | 36903 ft | 438 kts | 60° |
| 2026-04-23 17:01 | -2.15219 | 124.31463 | 36908 ft | 438 kts | 60° |
| 2026-04-23 17:01 | -2.12048 | 124.36663 | 36919 ft | 438 kts | 60° |
| 2026-04-23 17:02 | -2.08887 | 124.41831 | 36912 ft | 438 kts | 60° |
| 2026-04-23 17:02 | -2.05706 | 124.47025 | 36921 ft | 438 kts | 60° |
| 2026-04-23 17:03 | -2.02535 | 124.52225 | 36921 ft | 438 kts | 60° |
| 2026-04-23 17:03 | -1.99362 | 124.57425 | 36925 ft | 438 kts | 60° |
| 2026-04-23 17:04 | -1.96180 | 124.62621 | 36921 ft | 438 kts | 60° |
| 2026-04-23 17:04 | -1.92997 | 124.67822 | 36920 ft | 438 kts | 60° |
| 2026-04-23 17:05 | -1.89193 | 124.72596 | 36919 ft | 441 kts | 48° |
| 2026-04-23 17:05 | -1.84949 | 124.77028 | 36916 ft | 442 kts | 49° |
| 2026-04-23 17:06 | -1.80709 | 124.81486 | 36916 ft | 442 kts | 49° |
| 2026-04-23 17:06 | -1.76477 | 124.85938 | 36916 ft | 442 kts | 49° |
| 2026-04-23 17:07 | -1.72221 | 124.90394 | 36912 ft | 442 kts | 49° |
| 2026-04-23 17:07 | -1.67973 | 124.94842 | 36912 ft | 443 kts | 49° |
| 2026-04-23 17:08 | -1.63747 | 124.99277 | 36914 ft | 443 kts | 49° |
| 2026-04-23 17:08 | -1.59499 | 125.03741 | 36910 ft | 443 kts | 49° |
| 2026-04-23 17:09 | -1.55239 | 125.08204 | 36909 ft | 444 kts | 48° |
| 2026-04-23 17:09 | -1.50942 | 125.12697 | 36906 ft | 444 kts | 48° |
| 2026-04-23 17:10 | -1.46705 | 125.17139 | 36906 ft | 445 kts | 48° |
| 2026-04-23 17:10 | -1.42437 | 125.21624 | 36903 ft | 445 kts | 48° |
| 2026-04-23 17:11 | -1.38162 | 125.26102 | 36904 ft | 445 kts | 48° |
| 2026-04-23 17:11 | -1.33886 | 125.30586 | 36905 ft | 446 kts | 48° |
| 2026-04-23 17:12 | -1.29598 | 125.35079 | 36906 ft | 446 kts | 48° |
| 2026-04-23 17:12 | -1.25309 | 125.39566 | 36903 ft | 446 kts | 48° |
| 2026-04-23 17:13 | -1.21028 | 125.44053 | 36905 ft | 446 kts | 48° |
| 2026-04-23 17:13 | -1.16773 | 125.48514 | 36903 ft | 446 kts | 48° |
| 2026-04-23 17:14 | -1.12459 | 125.53037 | 36904 ft | 447 kts | 48° |
| 2026-04-23 17:14 | -1.08175 | 125.57539 | 36904 ft | 447 kts | 48° |
| 2026-04-23 17:15 | -1.03882 | 125.62031 | 36904 ft | 447 kts | 48° |
| 2026-04-23 17:15 | -0.99597 | 125.66521 | 36907 ft | 447 kts | 48° |
| 2026-04-23 17:16 | -0.95302 | 125.71011 | 36903 ft | 447 kts | 48° |
| 2026-04-23 17:16 | -0.91000 | 125.75505 | 36906 ft | 447 kts | 48° |
| 2026-04-23 17:17 | -0.86708 | 125.80002 | 36904 ft | 447 kts | 48° |
| 2026-04-23 17:17 | -0.82426 | 125.84499 | 36905 ft | 447 kts | 48° |
| 2026-04-23 17:18 | -0.76021 | 125.91213 | 36903 ft | 447 kts | 48° |
| 2026-04-23 17:19 | -0.71711 | 125.95732 | 36899 ft | 447 kts | 47° |
| 2026-04-23 17:19 | -0.67446 | 126.00204 | 36900 ft | 447 kts | 47° |
| 2026-04-23 17:20 | -0.63163 | 126.04690 | 36900 ft | 446 kts | 47° |
| 2026-04-23 17:21 | -0.54591 | 126.13661 | 36892 ft | 446 kts | 48° |
| 2026-04-23 17:21 | -0.48307 | 126.20493 | 36514 ft | 444 kts | 53° |
| 2026-04-23 17:22 | -0.46437 | 126.22939 | 35810 ft | 445 kts | 54° |
| 2026-04-23 17:22 | -0.42683 | 126.27897 | 34402 ft | 448 kts | 54° |
| 2026-04-23 17:23 | -0.38841 | 126.32959 | 32555 ft | 458 kts | 53° |
| 2026-04-23 17:23 | -0.36919 | 126.35477 | 32008 ft | 453 kts | 53° |
| 2026-04-23 17:23 | -0.33124 | 126.40449 | 30820 ft | 447 kts | 53° |
| 2026-04-23 17:24 | -0.31240 | 126.42920 | 30240 ft | 445 kts | 52° |
| 2026-04-23 17:24 | -0.29368 | 126.45377 | 29615 ft | 442 kts | 52° |
| 2026-04-23 17:24 | -0.25680 | 126.50217 | 28474 ft | 434 kts | 52° |
| 2026-04-23 17:25 | -0.22056 | 126.54968 | 27388 ft | 425 kts | 53° |
| 2026-04-23 17:25 | -0.20291 | 126.57282 | 26863 ft | 422 kts | 53° |
| 2026-04-23 17:26 | -0.16748 | 126.61931 | 25825 ft | 414 kts | 53° |
| 2026-04-23 17:26 | -0.13317 | 126.66431 | 24862 ft | 406 kts | 53° |
| 2026-04-23 17:27 | -0.09926 | 126.70877 | 23917 ft | 399 kts | 53° |
| 2026-04-23 17:27 | -0.08253 | 126.73068 | 23443 ft | 396 kts | 53° |
| 2026-04-23 17:27 | -0.06585 | 126.75259 | 22908 ft | 393 kts | 53° |
| 2026-04-23 17:27 | -0.04942 | 126.77420 | 22437 ft | 388 kts | 53° |
| 2026-04-23 17:28 | -0.03320 | 126.79553 | 21976 ft | 384 kts | 53° |
| 2026-04-23 17:28 | -0.01709 | 126.81667 | 21496 ft | 381 kts | 53° |
| 2026-04-23 17:28 | -0.00108 | 126.83766 | 21033 ft | 379 kts | 53° |
| 2026-04-23 17:28 | 0.01483 | 126.85852 | 20548 ft | 376 kts | 53° |
| 2026-04-23 17:29 | 0.03070 | 126.87938 | 20070 ft | 375 kts | 53° |
| 2026-04-23 17:29 | 0.04640 | 126.90005 | 19596 ft | 373 kts | 53° |
| 2026-04-23 17:29 | 0.07778 | 126.94123 | 18662 ft | 371 kts | 53° |
| 2026-04-23 17:30 | 0.08802 | 126.95461 | 18574 ft | 362 kts | 53° |
| 2026-04-23 17:30 | 0.12240 | 126.99963 | 18269 ft | 337 kts | 54° |
| 2026-04-23 17:30 | 0.13647 | 127.01811 | 18111 ft | 328 kts | 54° |
| 2026-04-23 17:31 | 0.15011 | 127.03607 | 17960 ft | 319 kts | 54° |
| 2026-04-23 17:31 | 0.16338 | 127.05352 | 17754 ft | 313 kts | 54° |
| 2026-04-23 17:31 | 0.17669 | 127.07080 | 17284 ft | 315 kts | 53° |
| 2026-04-23 17:31 | 0.19012 | 127.08808 | 16877 ft | 316 kts | 53° |
| 2026-04-23 17:32 | 0.20367 | 127.10545 | 16469 ft | 317 kts | 53° |
| 2026-04-23 17:32 | 0.21719 | 127.12283 | 16060 ft | 318 kts | 53° |
| 2026-04-23 17:32 | 0.23077 | 127.14027 | 15646 ft | 319 kts | 53° |
| 2026-04-23 17:32 | 0.24444 | 127.15785 | 15226 ft | 320 kts | 53° |
| 2026-04-23 17:33 | 0.25792 | 127.17523 | 14822 ft | 321 kts | 53° |
| 2026-04-23 17:33 | 0.27168 | 127.19281 | 14468 ft | 321 kts | 52° |
| 2026-04-23 17:33 | 0.28546 | 127.21024 | 14100 ft | 320 kts | 52° |
| 2026-04-23 17:33 | 0.29938 | 127.22777 | 13732 ft | 320 kts | 52° |
| 2026-04-23 17:34 | 0.31316 | 127.24517 | 13332 ft | 319 kts | 52° |
| 2026-04-23 17:34 | 0.32691 | 127.26256 | 12966 ft | 317 kts | 52° |
| 2026-04-23 17:34 | 0.35420 | 127.29695 | 12242 ft | 313 kts | 52° |
| 2026-04-23 17:35 | 0.36328 | 127.30842 | 12003 ft | 312 kts | 52° |
| 2026-04-23 17:35 | 0.38989 | 127.34206 | 11303 ft | 308 kts | 52° |
| 2026-04-23 17:35 | 0.40311 | 127.35877 | 10954 ft | 307 kts | 52° |
| 2026-04-23 17:36 | 0.41633 | 127.37547 | 10605 ft | 305 kts | 52° |
| 2026-04-23 17:36 | 0.42943 | 127.39203 | 10287 ft | 302 kts | 52° |
| 2026-04-23 17:36 | 0.44230 | 127.40834 | 10022 ft | 298 kts | 52° |
| 2026-04-23 17:36 | 0.45485 | 127.42424 | 9690 ft | 296 kts | 52° |
| 2026-04-23 17:37 | 0.46764 | 127.44044 | 9325 ft | 294 kts | 52° |
| 2026-04-23 17:37 | 0.48034 | 127.45645 | 8993 ft | 291 kts | 51° |
| 2026-04-23 17:37 | 0.50701 | 127.48645 | 8270 ft | 287 kts | 47° |
| 2026-04-23 17:38 | 0.51927 | 127.49942 | 8030 ft | 283 kts | 47° |
| 2026-04-23 17:38 | 0.53248 | 127.51334 | 7996 ft | 268 kts | 47° |
| 2026-04-23 17:38 | 0.54484 | 127.52644 | 7994 ft | 252 kts | 47° |
| 2026-04-23 17:38 | 0.55694 | 127.53935 | 7462 ft | 260 kts | 48° |
| 2026-04-23 17:39 | 0.56935 | 127.55269 | 6812 ft | 272 kts | 48° |
| 2026-04-23 17:39 | 0.58269 | 127.56672 | 6313 ft | 276 kts | 42° |
| 2026-04-23 17:39 | 0.59963 | 127.57512 | 5918 ft | 277 kts | 8° |
| 2026-04-23 17:39 | 0.61832 | 127.57249 | 5620 ft | 274 kts | 334° |
| 2026-04-23 17:40 | 0.63294 | 127.56060 | 5308 ft | 270 kts | 311° |
| 2026-04-23 17:40 | 0.64435 | 127.54571 | 4986 ft | 267 kts | 306° |
| 2026-04-23 17:40 | 0.65513 | 127.53076 | 4661 ft | 264 kts | 306° |
| 2026-04-23 17:40 | 0.66583 | 127.51594 | 4335 ft | 261 kts | 307° |
| 2026-04-23 17:41 | 0.67791 | 127.50281 | 4030 ft | 251 kts | 318° |
| 2026-04-23 17:41 | 0.70383 | 127.48201 | 3459 ft | 231 kts | 323° |
| 2026-04-23 17:41 | 0.71658 | 127.47237 | 3173 ft | 229 kts | 323° |
| 2026-04-23 17:42 | 0.74146 | 127.45319 | 2444 ft | 221 kts | 322° |
| 2026-04-23 17:42 | 0.75343 | 127.44377 | 2100 ft | 217 kts | 322° |
| 2026-04-23 17:42 | 0.76516 | 127.43448 | 1780 ft | 213 kts | 322° |
| 2026-04-23 17:43 | 0.77641 | 127.42553 | 1467 ft | 203 kts | 322° |
| 2026-04-23 17:43 | 0.78697 | 127.41709 | 1153 ft | 191 kts | 322° |
| 2026-04-23 17:43 | 0.79708 | 127.40897 | 876 ft | 178 kts | 321° |
| 2026-04-23 17:43 | 0.80642 | 127.40148 | 619 ft | 167 kts | 321° |
| 2026-04-23 17:44 | 0.81522 | 127.39435 | 406 ft | 164 kts | 321° |
| 2026-04-23 17:44 | 0.82423 | 127.38732 | 112 ft | 162 kts | 320° |
| 2026-04-23 17:44 | 0.82844 | 127.38384 | 65 ft | 150 kts | 320° |
| 2026-04-23 17:45 | 0.83307 | 127.37996 | 69 ft | 54 kts | 320° |
| 2026-04-23 17:45 | 0.83425 | 127.37838 | 65 ft | 1 kts | 229° |
| 2026-04-23 17:45 | 0.83414 | 127.37826 | 68 ft | 3 kts | 228° |